ELY199 MPTO-MROC
Flight info
| Callsign | ELY199 |
|---|---|
| Flight time | 0h 54m |
| Altitude | 34000 |
| Route | SIMAN3A SIMAN DCT PUDOS DCT ISEBA CUARE3I |
| Aircraft | B772/H-SDE2E3FGHIJ5LORVWXY/LB1D1 |
Departure
| Time | 2026-05-07 17:27 |
|---|---|
| Airport | Tocumen International Airport (MPTO) |
Arrival
| Time | 2026-05-07 18:21 |
|---|---|
| Airport | Juan Santamaría International Airport (MROC) |
| Time | Latitude | Longitude | Altitude | Speed | Heading |
|---|---|---|---|---|---|
| 2026-05-07 17:15 | 9.06365 | -79.38881 | 34 ft | 0 kts | 290° |
| 2026-05-07 17:18 | 9.06358 | -79.38862 | 33 ft | 4 kts | 289° |
| 2026-05-07 17:18 | 9.06349 | -79.38836 | 34 ft | 4 kts | 286° |
| 2026-05-07 17:19 | 9.06343 | -79.38811 | 32 ft | 4 kts | 267° |
| 2026-05-07 17:19 | 9.06348 | -79.38796 | 34 ft | 4 kts | 177° |
| 2026-05-07 17:19 | 9.06365 | -79.38800 | 34 ft | 4 kts | 166° |
| 2026-05-07 17:19 | 9.06370 | -79.38801 | 34 ft | 0 kts | 168° |
| 2026-05-07 17:21 | 9.06368 | -79.38801 | 34 ft | 3 kts | 168° |
| 2026-05-07 17:21 | 9.06309 | -79.38794 | 34 ft | 10 kts | 180° |
| 2026-05-07 17:22 | 9.06237 | -79.38799 | 34 ft | 10 kts | 187° |
| 2026-05-07 17:22 | 9.06170 | -79.38825 | 34 ft | 9 kts | 210° |
| 2026-05-07 17:22 | 9.06094 | -79.38877 | 34 ft | 22 kts | 210° |
| 2026-05-07 17:22 | 9.06001 | -79.38846 | 34 ft | 18 kts | 136° |
| 2026-05-07 17:23 | 9.05946 | -79.38768 | 35 ft | 14 kts | 155° |
| 2026-05-07 17:23 | 9.05856 | -79.38803 | 35 ft | 15 kts | 214° |
| 2026-05-07 17:23 | 9.05763 | -79.38863 | 35 ft | 16 kts | 211° |
| 2026-05-07 17:23 | 9.05666 | -79.38923 | 34 ft | 16 kts | 211° |
| 2026-05-07 17:24 | 9.05568 | -79.38982 | 34 ft | 16 kts | 211° |
| 2026-05-07 17:24 | 9.05470 | -79.39042 | 34 ft | 16 kts | 211° |
| 2026-05-07 17:24 | 9.05372 | -79.39100 | 34 ft | 16 kts | 210° |
| 2026-05-07 17:24 | 9.05272 | -79.39157 | 35 ft | 16 kts | 210° |
| 2026-05-07 17:25 | 9.05167 | -79.39217 | 35 ft | 18 kts | 209° |
| 2026-05-07 17:25 | 9.05058 | -79.39279 | 35 ft | 18 kts | 209° |
| 2026-05-07 17:25 | 9.04948 | -79.39340 | 34 ft | 18 kts | 208° |
| 2026-05-07 17:25 | 9.04830 | -79.39359 | 35 ft | 18 kts | 154° |
| 2026-05-07 17:26 | 9.04801 | -79.39249 | 36 ft | 18 kts | 61° |
| 2026-05-07 17:26 | 9.04953 | -79.39154 | 36 ft | 55 kts | 29° |
| 2026-05-07 17:26 | 9.05564 | -79.38805 | 36 ft | 144 kts | 30° |
| 2026-05-07 17:26 | 9.06611 | -79.38210 | 448 ft | 185 kts | 30° |
| 2026-05-07 17:27 | 9.07713 | -79.37614 | 1761 ft | 173 kts | 28° |
| 2026-05-07 17:27 | 9.08731 | -79.37061 | 2906 ft | 170 kts | 28° |
| 2026-05-07 17:27 | 9.09849 | -79.36430 | 3452 ft | 198 kts | 29° |
| 2026-05-07 17:27 | 9.11080 | -79.35732 | 4168 ft | 211 kts | 30° |
| 2026-05-07 17:28 | 9.12432 | -79.34959 | 4755 ft | 230 kts | 30° |
| 2026-05-07 17:28 | 9.13843 | -79.34150 | 5700 ft | 235 kts | 30° |
| 2026-05-07 17:28 | 9.15280 | -79.33321 | 6634 ft | 241 kts | 31° |
| 2026-05-07 17:28 | 9.16749 | -79.32470 | 7539 ft | 245 kts | 31° |
| 2026-05-07 17:29 | 9.18239 | -79.31610 | 8459 ft | 249 kts | 31° |
| 2026-05-07 17:29 | 9.19755 | -79.30734 | 9366 ft | 255 kts | 32° |
| 2026-05-07 17:29 | 9.21440 | -79.29973 | 9710 ft | 283 kts | 11° |
| 2026-05-07 17:29 | 9.23454 | -79.30178 | 10362 ft | 304 kts | 342° |
| 2026-05-07 17:30 | 9.25315 | -79.31354 | 10875 ft | 329 kts | 316° |
| 2026-05-07 17:30 | 9.26615 | -79.33309 | 11710 ft | 342 kts | 294° |
| 2026-05-07 17:30 | 9.27240 | -79.35664 | 12563 ft | 354 kts | 276° |
| 2026-05-07 17:30 | 9.27302 | -79.38179 | 13553 ft | 361 kts | 268° |
| 2026-05-07 17:31 | 9.27203 | -79.40737 | 14506 ft | 366 kts | 268° |
| 2026-05-07 17:31 | 9.27109 | -79.43327 | 15518 ft | 370 kts | 268° |
| 2026-05-07 17:31 | 9.27061 | -79.45948 | 16559 ft | 375 kts | 269° |
| 2026-05-07 17:31 | 9.27060 | -79.48602 | 17598 ft | 379 kts | 270° |
| 2026-05-07 17:32 | 9.27083 | -79.51291 | 18523 ft | 385 kts | 270° |
| 2026-05-07 17:32 | 9.27114 | -79.54018 | 19364 ft | 391 kts | 272° |
| 2026-05-07 17:32 | 9.27432 | -79.56713 | 20097 ft | 395 kts | 285° |
| 2026-05-07 17:32 | 9.28209 | -79.59403 | 20882 ft | 401 kts | 289° |
| 2026-05-07 17:33 | 9.29062 | -79.62110 | 21750 ft | 406 kts | 290° |
| 2026-05-07 17:33 | 9.29915 | -79.64849 | 22632 ft | 411 kts | 289° |
| 2026-05-07 17:33 | 9.30757 | -79.67640 | 23485 ft | 417 kts | 289° |
| 2026-05-07 17:33 | 9.31590 | -79.70477 | 24176 ft | 422 kts | 289° |
| 2026-05-07 17:34 | 9.32412 | -79.73333 | 25001 ft | 424 kts | 288° |
| 2026-05-07 17:34 | 9.33231 | -79.76202 | 25808 ft | 426 kts | 288° |
| 2026-05-07 17:34 | 9.34058 | -79.79102 | 26558 ft | 431 kts | 288° |
| 2026-05-07 17:34 | 9.34897 | -79.82036 | 27271 ft | 436 kts | 288° |
| 2026-05-07 17:35 | 9.35716 | -79.85003 | 27953 ft | 439 kts | 283° |
| 2026-05-07 17:35 | 9.35942 | -79.88113 | 28511 ft | 449 kts | 264° |
| 2026-05-07 17:35 | 9.35275 | -79.91192 | 29146 ft | 450 kts | 255° |
| 2026-05-07 17:35 | 9.34486 | -79.94280 | 29774 ft | 455 kts | 256° |
| 2026-05-07 17:36 | 9.33715 | -79.97392 | 30506 ft | 455 kts | 256° |
| 2026-05-07 17:36 | 9.32969 | -80.00479 | 31403 ft | 449 kts | 256° |
| 2026-05-07 17:36 | 9.32244 | -80.03529 | 32363 ft | 442 kts | 257° |
| 2026-05-07 17:36 | 9.31550 | -80.06472 | 33227 ft | 437 kts | 257° |
| 2026-05-07 17:37 | 9.30859 | -80.09423 | 33823 ft | 431 kts | 257° |
| 2026-05-07 17:37 | 9.30167 | -80.12385 | 33944 ft | 434 kts | 257° |
| 2026-05-07 17:37 | 9.28810 | -80.18186 | 33949 ft | 432 kts | 257° |
| 2026-05-07 17:38 | 9.27426 | -80.24091 | 33946 ft | 432 kts | 257° |
| 2026-05-07 17:38 | 9.26037 | -80.30009 | 33946 ft | 433 kts | 257° |
| 2026-05-07 17:39 | 9.24656 | -80.35892 | 33947 ft | 434 kts | 257° |
| 2026-05-07 17:39 | 9.23261 | -80.41831 | 33948 ft | 433 kts | 257° |
| 2026-05-07 17:40 | 9.21868 | -80.47760 | 33948 ft | 433 kts | 257° |
| 2026-05-07 17:40 | 9.20473 | -80.53687 | 33950 ft | 433 kts | 257° |
| 2026-05-07 17:41 | 9.19078 | -80.59607 | 33948 ft | 432 kts | 257° |
| 2026-05-07 17:41 | 9.17684 | -80.65519 | 33947 ft | 431 kts | 257° |
| 2026-05-07 17:42 | 9.16294 | -80.71412 | 33955 ft | 430 kts | 257° |
| 2026-05-07 17:42 | 9.14904 | -80.77304 | 33951 ft | 430 kts | 257° |
| 2026-05-07 17:43 | 9.13515 | -80.83185 | 33956 ft | 430 kts | 257° |
| 2026-05-07 17:43 | 9.12123 | -80.89073 | 33955 ft | 430 kts | 257° |
| 2026-05-07 17:44 | 9.10736 | -80.94933 | 33958 ft | 430 kts | 257° |
| 2026-05-07 17:44 | 9.09349 | -81.00822 | 33956 ft | 429 kts | 259° |
| 2026-05-07 17:45 | 9.09046 | -81.06807 | 33965 ft | 427 kts | 277° |
| 2026-05-07 17:45 | 9.10260 | -81.12598 | 33967 ft | 425 kts | 285° |
| 2026-05-07 17:46 | 9.11769 | -81.18328 | 33978 ft | 437 kts | 285° |
| 2026-05-07 17:46 | 9.13314 | -81.24254 | 33950 ft | 427 kts | 285° |
| 2026-05-07 17:47 | 9.14775 | -81.29974 | 33954 ft | 421 kts | 285° |
| 2026-05-07 17:47 | 9.16264 | -81.35842 | 33977 ft | 443 kts | 285° |
| 2026-05-07 17:48 | 9.17800 | -81.41918 | 33963 ft | 446 kts | 285° |
| 2026-05-07 17:48 | 9.19332 | -81.47994 | 33951 ft | 445 kts | 285° |
| 2026-05-07 17:49 | 9.20859 | -81.54057 | 33954 ft | 444 kts | 285° |
| 2026-05-07 17:49 | 9.22385 | -81.60111 | 33957 ft | 444 kts | 285° |
| 2026-05-07 17:50 | 9.23911 | -81.66172 | 33955 ft | 444 kts | 285° |
| 2026-05-07 17:50 | 9.25437 | -81.72237 | 33953 ft | 445 kts | 285° |
| 2026-05-07 17:51 | 9.26965 | -81.78309 | 33957 ft | 445 kts | 285° |
| 2026-05-07 17:51 | 9.28492 | -81.84384 | 33961 ft | 445 kts | 285° |
| 2026-05-07 17:52 | 9.30019 | -81.90460 | 33960 ft | 445 kts | 285° |
| 2026-05-07 17:52 | 9.31543 | -81.96535 | 33961 ft | 446 kts | 285° |
| 2026-05-07 17:53 | 9.33067 | -82.02617 | 33962 ft | 446 kts | 285° |
| 2026-05-07 17:53 | 9.34590 | -82.08699 | 33962 ft | 446 kts | 285° |
| 2026-05-07 17:54 | 9.36113 | -82.14782 | 33964 ft | 446 kts | 285° |
| 2026-05-07 17:54 | 9.37624 | -82.20827 | 33966 ft | 446 kts | 285° |
| 2026-05-07 17:55 | 9.39147 | -82.26917 | 33959 ft | 447 kts | 285° |
| 2026-05-07 17:55 | 9.40674 | -82.33027 | 33964 ft | 447 kts | 285° |
| 2026-05-07 17:56 | 9.42197 | -82.39134 | 33967 ft | 447 kts | 285° |
| 2026-05-07 17:56 | 9.43720 | -82.45240 | 33985 ft | 448 kts | 285° |
| 2026-05-07 17:57 | 9.44986 | -82.50325 | 33966 ft | 449 kts | 285° |
| 2026-05-07 17:57 | 9.46766 | -82.57473 | 33970 ft | 447 kts | 285° |
| 2026-05-07 17:58 | 9.48275 | -82.63540 | 33969 ft | 445 kts | 285° |
| 2026-05-07 17:58 | 9.49792 | -82.69641 | 33974 ft | 445 kts | 285° |
| 2026-05-07 17:59 | 9.51303 | -82.75719 | 33985 ft | 445 kts | 285° |
| 2026-05-07 17:59 | 9.52811 | -82.81801 | 33981 ft | 446 kts | 285° |
| 2026-05-07 18:00 | 9.54325 | -82.87896 | 33998 ft | 446 kts | 285° |
| 2026-05-07 18:00 | 9.55888 | -82.93986 | 34002 ft | 447 kts | 286° |
| 2026-05-07 18:01 | 9.57467 | -83.00092 | 33999 ft | 448 kts | 286° |
| 2026-05-07 18:01 | 9.59035 | -83.06192 | 34014 ft | 448 kts | 285° |
| 2026-05-07 18:02 | 9.61484 | -83.15256 | 33944 ft | 442 kts | 290° |
| 2026-05-07 18:02 | 9.62505 | -83.18171 | 33435 ft | 439 kts | 291° |
| 2026-05-07 18:03 | 9.63582 | -83.21069 | 32353 ft | 445 kts | 291° |
| 2026-05-07 18:03 | 9.64695 | -83.24045 | 31252 ft | 459 kts | 291° |
| 2026-05-07 18:03 | 9.65817 | -83.27084 | 30339 ft | 462 kts | 291° |
| 2026-05-07 18:03 | 9.66918 | -83.30109 | 30178 ft | 451 kts | 290° |
| 2026-05-07 18:04 | 9.67983 | -83.33101 | 30057 ft | 452 kts | 290° |
| 2026-05-07 18:04 | 9.69035 | -83.36083 | 29690 ft | 441 kts | 290° |
| 2026-05-07 18:04 | 9.70055 | -83.38972 | 28546 ft | 434 kts | 290° |
| 2026-05-07 18:04 | 9.71081 | -83.41868 | 26960 ft | 442 kts | 291° |
| 2026-05-07 18:05 | 9.72109 | -83.44770 | 26507 ft | 433 kts | 291° |
| 2026-05-07 18:05 | 9.73132 | -83.47656 | 25918 ft | 437 kts | 291° |
| 2026-05-07 18:05 | 9.74167 | -83.50574 | 25321 ft | 446 kts | 291° |
| 2026-05-07 18:05 | 9.75041 | -83.53602 | 24688 ft | 451 kts | 279° |
| 2026-05-07 18:06 | 9.75068 | -83.56753 | 24064 ft | 445 kts | 264° |
| 2026-05-07 18:06 | 9.74712 | -83.59867 | 23422 ft | 445 kts | 263° |
| 2026-05-07 18:06 | 9.74410 | -83.62986 | 22726 ft | 444 kts | 265° |
| 2026-05-07 18:06 | 9.74172 | -83.66093 | 22115 ft | 441 kts | 265° |
| 2026-05-07 18:07 | 9.73960 | -83.69188 | 21495 ft | 439 kts | 265° |
| 2026-05-07 18:07 | 9.73748 | -83.72267 | 20899 ft | 436 kts | 265° |
| 2026-05-07 18:07 | 9.73532 | -83.75312 | 20308 ft | 432 kts | 265° |
| 2026-05-07 18:07 | 9.73317 | -83.78330 | 20001 ft | 422 kts | 265° |
| 2026-05-07 18:08 | 9.73107 | -83.81252 | 19821 ft | 409 kts | 265° |
| 2026-05-07 18:08 | 9.72898 | -83.84112 | 19467 ft | 405 kts | 265° |
| 2026-05-07 18:08 | 9.72688 | -83.86947 | 19059 ft | 402 kts | 265° |
| 2026-05-07 18:08 | 9.72471 | -83.89767 | 18938 ft | 402 kts | 265° |
| 2026-05-07 18:09 | 9.72327 | -83.91628 | 18786 ft | 397 kts | 265° |
| 2026-05-07 18:09 | 9.72113 | -83.94385 | 18460 ft | 390 kts | 264° |
| 2026-05-07 18:09 | 9.71901 | -83.97128 | 17859 ft | 391 kts | 264° |
| 2026-05-07 18:09 | 9.71689 | -83.99870 | 17278 ft | 390 kts | 265° |
| 2026-05-07 18:10 | 9.71478 | -84.02608 | 16775 ft | 388 kts | 264° |
| 2026-05-07 18:10 | 9.71269 | -84.05311 | 16281 ft | 385 kts | 265° |
| 2026-05-07 18:10 | 9.71059 | -84.08016 | 15768 ft | 383 kts | 264° |
| 2026-05-07 18:10 | 9.70849 | -84.10708 | 15242 ft | 384 kts | 264° |
| 2026-05-07 18:11 | 9.70640 | -84.13402 | 14775 ft | 382 kts | 264° |
| 2026-05-07 18:11 | 9.70433 | -84.16076 | 14402 ft | 379 kts | 264° |
| 2026-05-07 18:11 | 9.70228 | -84.18663 | 13954 ft | 375 kts | 264° |
| 2026-05-07 18:11 | 9.70028 | -84.21290 | 13435 ft | 370 kts | 265° |
| 2026-05-07 18:12 | 9.70199 | -84.23866 | 12668 ft | 368 kts | 285° |
| 2026-05-07 18:12 | 9.71189 | -84.26196 | 12060 ft | 355 kts | 297° |
| 2026-05-07 18:12 | 9.72245 | -84.28442 | 11730 ft | 350 kts | 295° |
| 2026-05-07 18:12 | 9.73236 | -84.30669 | 11445 ft | 344 kts | 294° |
| 2026-05-07 18:13 | 9.74194 | -84.32865 | 11154 ft | 336 kts | 294° |
| 2026-05-07 18:13 | 9.75132 | -84.35013 | 10881 ft | 329 kts | 294° |
| 2026-05-07 18:13 | 9.76039 | -84.37089 | 10537 ft | 326 kts | 294° |
| 2026-05-07 18:13 | 9.76958 | -84.39181 | 10175 ft | 324 kts | 294° |
| 2026-05-07 18:14 | 9.77755 | -84.40998 | 10012 ft | 305 kts | 294° |
| 2026-05-07 18:14 | 9.78565 | -84.42827 | 9984 ft | 279 kts | 297° |
| 2026-05-07 18:14 | 9.79714 | -84.44297 | 9995 ft | 263 kts | 323° |
| 2026-05-07 18:14 | 9.81324 | -84.45159 | 9628 ft | 262 kts | 346° |
| 2026-05-07 18:15 | 9.83078 | -84.45615 | 9264 ft | 262 kts | 348° |
| 2026-05-07 18:15 | 9.84857 | -84.46084 | 8889 ft | 265 kts | 347° |
| 2026-05-07 18:15 | 9.86625 | -84.46544 | 8485 ft | 256 kts | 352° |
| 2026-05-07 18:15 | 9.88333 | -84.46476 | 8159 ft | 244 kts | 22° |
| 2026-05-07 18:16 | 9.89694 | -84.45522 | 7850 ft | 238 kts | 53° |
| 2026-05-07 18:16 | 9.90526 | -84.44093 | 7529 ft | 235 kts | 63° |
| 2026-05-07 18:16 | 9.91234 | -84.42597 | 7201 ft | 236 kts | 67° |
| 2026-05-07 18:16 | 9.91837 | -84.41054 | 6921 ft | 234 kts | 69° |
| 2026-05-07 18:17 | 9.92413 | -84.39507 | 6563 ft | 235 kts | 69° |
| 2026-05-07 18:17 | 9.92990 | -84.37954 | 6227 ft | 234 kts | 68° |
| 2026-05-07 18:17 | 9.93552 | -84.36447 | 5982 ft | 221 kts | 68° |
| 2026-05-07 18:17 | 9.94077 | -84.35049 | 5712 ft | 201 kts | 68° |
| 2026-05-07 18:18 | 9.94551 | -84.33778 | 5459 ft | 183 kts | 67° |
| 2026-05-07 18:18 | 9.94986 | -84.32621 | 5238 ft | 165 kts | 67° |
| 2026-05-07 18:18 | 9.95370 | -84.31596 | 5188 ft | 153 kts | 67° |
| 2026-05-07 18:18 | 9.95729 | -84.30636 | 5145 ft | 140 kts | 66° |
| 2026-05-07 18:19 | 9.96073 | -84.29724 | 4969 ft | 136 kts | 66° |
| 2026-05-07 18:19 | 9.96410 | -84.28825 | 4673 ft | 137 kts | 68° |
| 2026-05-07 18:19 | 9.96740 | -84.27954 | 4167 ft | 123 kts | 72° |
| 2026-05-07 18:19 | 9.97051 | -84.27116 | 4054 ft | 136 kts | 71° |
| 2026-05-07 18:20 | 9.97378 | -84.26239 | 3859 ft | 134 kts | 70° |
| 2026-05-07 18:20 | 9.97712 | -84.25349 | 3670 ft | 136 kts | 69° |
| 2026-05-07 18:20 | 9.98051 | -84.24449 | 3480 ft | 138 kts | 69° |
| 2026-05-07 18:20 | 9.98395 | -84.23530 | 3298 ft | 140 kts | 70° |
| 2026-05-07 18:21 | 9.98751 | -84.22601 | 3094 ft | 142 kts | 70° |
| 2026-05-07 18:21 | 9.99082 | -84.21704 | 2980 ft | 127 kts | 71° |
| 2026-05-07 18:21 | 9.99364 | -84.20947 | 3024 ft | 98 kts | 70° |
| 2026-05-07 18:21 | 9.99509 | -84.20562 | 3039 ft | 36 kts | 68° |
| 2026-05-07 18:22 | 9.99557 | -84.20450 | 3044 ft | 8 kts | 50° |
| 2026-05-07 18:22 | 9.99578 | -84.20436 | 3042 ft | 0 kts | 22° |
| 2026-05-07 18:22 | 9.99621 | -84.20446 | 3040 ft | 12 kts | 319° |
| 2026-05-07 18:22 | 9.99620 | -84.20528 | 3040 ft | 19 kts | 248° |
| 2026-05-07 18:23 | 9.99570 | -84.20655 | 3042 ft | 17 kts | 250° |
| 2026-05-07 18:23 | 9.99536 | -84.20752 | 3041 ft | 15 kts | 250° |
| 2026-05-07 18:23 | 9.99502 | -84.20849 | 3042 ft | 15 kts | 250° |
| 2026-05-07 18:23 | 9.99481 | -84.20910 | 3035 ft | 2 kts | 266° |
| 2026-05-07 18:24 | 9.99513 | -84.20942 | 3036 ft | 12 kts | 338° |
| 2026-05-07 18:24 | 9.99560 | -84.21002 | 3031 ft | 13 kts | 264° |
| 2026-05-07 18:24 | 9.99542 | -84.21069 | 3024 ft | 11 kts | 263° |
| 2026-05-07 18:24 | 9.99595 | -84.21117 | 3024 ft | 6 kts | 337° |
| 2026-05-07 18:25 | 9.99603 | -84.21120 | 3019 ft | 0 kts | 338° |